sensor_id;sensor_type;location;lat;lon;timestamp;pressure;altitude;pressure_sealevel;temperature;humidity
20115;BME280;10218;42.874;25.320;2023-01-16T00:01:56;97103.59;;;4.42;100.00
20115;BME280;10218;42.874;25.320;2023-01-16T00:04:24;97101.78;;;4.33;100.00
20115;BME280;10218;42.874;25.320;2023-01-16T00:06:51;97106.03;;;3.54;100.00
20115;BME280;10218;42.874;25.320;2023-01-16T00:09:18;97099.72;;;4.37;100.00
20115;BME280;10218;42.874;25.320;2023-01-16T00:11:46;97097.09;;;4.46;100.00
20115;BME280;10218;42.874;25.320;2023-01-16T00:14:13;97089.41;;;4.43;100.00
20115;BME280;10218;42.874;25.320;2023-01-16T00:16:40;97089.63;;;4.80;100.00
20115;BME280;10218;42.874;25.320;2023-01-16T00:19:07;97084.44;;;4.79;100.00
20115;BME280;10218;42.874;25.320;2023-01-16T00:21:34;97076.94;;;5.22;100.00
20115;BME280;10218;42.874;25.320;2023-01-16T00:24:01;97062.69;;;5.42;100.00
20115;BME280;10218;42.874;25.320;2023-01-16T00:26:29;97075.47;;;5.56;100.00
20115;BME280;10218;42.874;25.320;2023-01-16T00:28:57;97074.37;;;5.49;100.00
20115;BME280;10218;42.874;25.320;2023-01-16T00:31:24;97074.66;;;5.46;100.00
20115;BME280;10218;42.874;25.320;2023-01-16T00:33:54;97076.50;;;5.27;100.00
20115;BME280;10218;42.874;25.320;2023-01-16T00:36:21;97073.03;;;5.26;100.00
20115;BME280;10218;42.874;25.320;2023-01-16T00:38:48;97064.16;;;5.54;100.00
20115;BME280;10218;42.874;25.320;2023-01-16T00:41:16;97058.87;;;5.54;100.00
20115;BME280;10218;42.874;25.320;2023-01-16T00:43:43;97056.78;;;5.58;100.00
20115;BME280;10218;42.874;25.320;2023-01-16T00:46:10;97051.91;;;5.63;100.00
20115;BME280;10218;42.874;25.320;2023-01-16T00:48:37;97055.62;;;5.70;100.00
20115;BME280;10218;42.874;25.320;2023-01-16T00:51:04;97044.22;;;5.60;100.00
20115;BME280;10218;42.874;25.320;2023-01-16T00:53:31;97046.72;;;5.62;100.00
20115;BME280;10218;42.874;25.320;2023-01-16T00:55:59;97051.09;;;5.53;100.00
20115;BME280;10218;42.874;25.320;2023-01-16T00:58:26;97034.41;;;5.70;100.00
20115;BME280;10218;42.874;25.320;2023-01-16T01:00:53;97041.47;;;5.52;100.00
20115;BME280;10218;42.874;25.320;2023-01-16T01:03:20;97042.53;;;5.69;100.00
20115;BME280;10218;42.874;25.320;2023-01-16T01:05:47;97041.78;;;5.76;100.00
20115;BME280;10218;42.874;25.320;2023-01-16T01:08:14;97039.59;;;5.72;100.00
20115;BME280;10218;42.874;25.320;2023-01-16T01:10:41;97043.87;;;5.82;100.00
20115;BME280;10218;42.874;25.320;2023-01-16T01:13:08;97036.63;;;5.75;100.00
20115;BME280;10218;42.874;25.320;2023-01-16T01:15:36;97022.56;;;5.65;100.00
20115;BME280;10218;42.874;25.320;2023-01-16T01:18:03;97028.19;;;5.62;100.00
20115;BME280;10218;42.874;25.320;2023-01-16T01:20:31;97018.47;;;5.80;100.00
20115;BME280;10218;42.874;25.320;2023-01-16T01:22:58;97022.78;;;5.81;100.00
20115;BME280;10218;42.874;25.320;2023-01-16T01:25:25;97017.28;;;5.65;100.00
20115;BME280;10218;42.874;25.320;2023-01-16T01:27:52;97012.97;;;5.64;100.00
20115;BME280;10218;42.874;25.320;2023-01-16T01:30:19;97010.09;;;5.47;100.00
20115;BME280;10218;42.874;25.320;2023-01-16T01:32:47;97011.88;;;5.56;100.00
20115;BME280;10218;42.874;25.320;2023-01-16T01:35:14;97003.34;;;5.63;100.00
20115;BME280;10218;42.874;25.320;2023-01-16T01:37:42;97001.16;;;5.58;100.00
20115;BME280;10218;42.874;25.320;2023-01-16T01:40:10;97005.56;;;5.21;100.00
20115;BME280;10218;42.874;25.320;2023-01-16T01:42:41;97000.56;;;5.08;100.00
20115;BME280;10218;42.874;25.320;2023-01-16T01:50:40;96999.72;;;5.17;100.00
20115;BME280;10218;42.874;25.320;2023-01-16T01:55:56;96995.81;;;4.06;100.00
20115;BME280;10218;42.874;25.320;2023-01-16T01:58:25;96989.69;;;4.05;100.00
20115;BME280;10218;42.874;25.320;2023-01-16T02:00:56;96995.84;;;4.73;100.00
20115;BME280;10218;42.874;25.320;2023-01-16T02:03:34;96992.13;;;4.76;100.00
20115;BME280;10218;42.874;25.320;2023-01-16T02:06:07;96985.38;;;4.04;100.00
20115;BME280;10218;42.874;25.320;2023-01-16T02:08:36;96991.63;;;4.03;100.00
20115;BME280;10218;42.874;25.320;2023-01-16T02:11:08;96983.25;;;3.88;100.00
20115;BME280;10218;42.874;25.320;2023-01-16T02:13:37;96975.09;;;4.11;100.00
20115;BME280;10218;42.874;25.320;2023-01-16T02:16:05;96974.72;;;4.44;100.00
20115;BME280;10218;42.874;25.320;2023-01-16T02:18:52;96969.97;;;4.67;100.00
20115;BME280;10218;42.874;25.320;2023-01-16T02:22:10;96971.78;;;4.76;100.00
20115;BME280;10218;42.874;25.320;2023-01-16T02:33:27;96971.94;;;4.46;100.00
20115;BME280;10218;42.874;25.320;2023-01-16T02:38:46;96980.38;;;5.07;100.00
20115;BME280;10218;42.874;25.320;2023-01-16T02:41:30;96979.12;;;5.01;100.00
20115;BME280;10218;42.874;25.320;2023-01-16T02:44:16;96982.22;;;4.68;100.00
20115;BME280;10218;42.874;25.320;2023-01-16T02:52:32;96978.84;;;4.18;100.00
20115;BME280;10218;42.874;25.320;2023-01-16T02:55:07;96977.19;;;4.17;100.00
20115;BME280;10218;42.874;25.320;2023-01-16T02:57:42;96981.72;;;3.46;100.00
20115;BME280;10218;42.874;25.320;2023-01-16T03:00:11;96986.66;;;3.30;100.00
20115;BME280;10218;42.874;25.320;2023-01-16T03:02:43;96988.97;;;3.23;100.00
20115;BME280;10218;42.874;25.320;2023-01-16T03:05:10;96987.62;;;3.59;100.00
20115;BME280;10218;42.874;25.320;2023-01-16T03:21:06;96963.62;;;3.11;100.00
20115;BME280;10218;42.874;25.320;2023-01-16T03:23:55;96960.78;;;3.24;100.00
20115;BME280;10218;42.874;25.320;2023-01-16T03:26:46;96954.13;;;3.29;100.00
20115;BME280;10218;42.874;25.320;2023-01-16T03:33:04;96959.66;;;3.26;100.00
20115;BME280;10218;42.874;25.320;2023-01-16T03:35:03;96953.94;;;3.52;100.00
20115;BME280;10218;42.874;25.320;2023-01-16T03:37:41;96946.88;;;3.22;100.00
20115;BME280;10218;42.874;25.320;2023-01-16T03:40:15;96954.13;;;2.99;100.00
20115;BME280;10218;42.874;25.320;2023-01-16T03:42:52;96940.53;;;3.04;100.00
20115;BME280;10218;42.874;25.320;2023-01-16T03:48:02;96933.19;;;3.07;100.00
20115;BME280;10218;42.874;25.320;2023-01-16T03:50:31;96937.37;;;3.10;100.00
20115;BME280;10218;42.874;25.320;2023-01-16T03:53:04;96939.50;;;2.95;100.00
20115;BME280;10218;42.874;25.320;2023-01-16T03:56:17;96941.97;;;3.17;100.00
20115;BME280;10218;42.874;25.320;2023-01-16T03:58:50;96940.34;;;3.26;100.00
20115;BME280;10218;42.874;25.320;2023-01-16T04:04:06;96916.88;;;3.72;100.00
20115;BME280;10218;42.874;25.320;2023-01-16T04:06:37;96914.53;;;3.88;100.00
20115;BME280;10218;42.874;25.320;2023-01-16T04:09:13;96912.19;;;3.85;100.00
20115;BME280;10218;42.874;25.320;2023-01-16T04:11:42;96917.50;;;4.14;100.00
20115;BME280;10218;42.874;25.320;2023-01-16T04:14:13;96915.16;;;4.21;100.00
20115;BME280;10218;42.874;25.320;2023-01-16T04:16:42;96907.63;;;4.26;100.00
20115;BME280;10218;42.874;25.320;2023-01-16T04:19:12;96907.34;;;4.10;100.00
20115;BME280;10218;42.874;25.320;2023-01-16T04:21:45;96900.38;;;3.99;100.00
20115;BME280;10218;42.874;25.320;2023-01-16T04:24:13;96896.06;;;4.08;100.00
20115;BME280;10218;42.874;25.320;2023-01-16T04:26:41;96898.03;;;4.15;100.00
20115;BME280;10218;42.874;25.320;2023-01-16T04:29:08;96892.00;;;4.42;100.00
20115;BME280;10218;42.874;25.320;2023-01-16T04:31:35;96888.69;;;4.50;100.00
20115;BME280;10218;42.874;25.320;2023-01-16T04:34:03;96893.41;;;4.46;100.00
20115;BME280;10218;42.874;25.320;2023-01-16T04:36:30;96888.16;;;4.37;100.00
20115;BME280;10218;42.874;25.320;2023-01-16T04:38:57;96881.28;;;4.44;100.00
20115;BME280;10218;42.874;25.320;2023-01-16T04:41:25;96885.31;;;4.57;100.00
20115;BME280;10218;42.874;25.320;2023-01-16T04:44:07;96878.66;;;4.44;100.00
20115;BME280;10218;42.874;25.320;2023-01-16T04:46:35;96874.09;;;4.36;100.00
20115;BME280;10218;42.874;25.320;2023-01-16T04:49:05;96865.31;;;4.36;100.00
20115;BME280;10218;42.874;25.320;2023-01-16T04:51:33;96858.34;;;4.44;100.00
20115;BME280;10218;42.874;25.320;2023-01-16T04:54:01;96860.66;;;4.66;100.00
20115;BME280;10218;42.874;25.320;2023-01-16T04:56:29;96859.97;;;4.64;100.00
20115;BME280;10218;42.874;25.320;2023-01-16T04:58:56;96827.06;;;4.77;100.00
20115;BME280;10218;42.874;25.320;2023-01-16T05:01:23;96844.06;;;4.74;100.00
20115;BME280;10218;42.874;25.320;2023-01-16T05:03:51;96840.41;;;4.85;100.00
20115;BME280;10218;42.874;25.320;2023-01-16T05:06:18;96840.66;;;4.91;100.00
20115;BME280;10218;42.874;25.320;2023-01-16T05:08:45;96833.00;;;4.88;100.00
20115;BME280;10218;42.874;25.320;2023-01-16T05:11:12;96839.22;;;5.06;100.00
20115;BME280;10218;42.874;25.320;2023-01-16T05:13:39;96827.84;;;4.96;100.00
20115;BME280;10218;42.874;25.320;2023-01-16T05:16:07;96823.37;;;4.97;100.00
20115;BME280;10218;42.874;25.320;2023-01-16T05:18:34;96817.59;;;4.74;100.00
20115;BME280;10218;42.874;25.320;2023-01-16T05:21:00;96828.44;;;5.18;100.00
20115;BME280;10218;42.874;25.320;2023-01-16T05:23:28;96825.34;;;5.22;100.00
20115;BME280;10218;42.874;25.320;2023-01-16T05:25:55;96813.72;;;5.33;100.00
20115;BME280;10218;42.874;25.320;2023-01-16T05:28:22;96820.53;;;5.35;100.00
20115;BME280;10218;42.874;25.320;2023-01-16T05:30:49;96819.66;;;5.17;100.00
20115;BME280;10218;42.874;25.320;2023-01-16T05:33:17;96802.38;;;5.13;100.00
20115;BME280;10218;42.874;25.320;2023-01-16T05:35:46;96815.87;;;5.20;100.00
20115;BME280;10218;42.874;25.320;2023-01-16T05:38:14;96820.25;;;5.38;100.00
20115;BME280;10218;42.874;25.320;2023-01-16T05:40:43;96820.09;;;5.12;100.00
20115;BME280;10218;42.874;25.320;2023-01-16T05:43:10;96820.25;;;5.11;100.00
20115;BME280;10218;42.874;25.320;2023-01-16T05:45:37;96825.22;;;5.14;100.00
20115;BME280;10218;42.874;25.320;2023-01-16T05:48:05;96822.31;;;5.17;100.00
20115;BME280;10218;42.874;25.320;2023-01-16T05:50:32;96821.88;;;5.22;100.00
20115;BME280;10218;42.874;25.320;2023-01-16T05:53:00;96821.81;;;5.31;100.00
20115;BME280;10218;42.874;25.320;2023-01-16T05:55:27;96813.41;;;5.08;100.00
20115;BME280;10218;42.874;25.320;2023-01-16T05:57:54;96817.63;;;5.29;100.00
20115;BME280;10218;42.874;25.320;2023-01-16T06:00:22;96815.63;;;5.40;100.00
20115;BME280;10218;42.874;25.320;2023-01-16T06:02:50;96826.06;;;5.42;100.00
20115;BME280;10218;42.874;25.320;2023-01-16T06:05:17;96831.37;;;5.42;100.00
20115;BME280;10218;42.874;25.320;2023-01-16T06:07:44;96818.97;;;5.60;100.00
20115;BME280;10218;42.874;25.320;2023-01-16T06:10:12;96837.59;;;5.50;100.00
20115;BME280;10218;42.874;25.320;2023-01-16T06:12:39;96829.75;;;5.58;100.00
20115;BME280;10218;42.874;25.320;2023-01-16T06:15:06;96828.97;;;5.48;100.00
20115;BME280;10218;42.874;25.320;2023-01-16T06:17:34;96824.25;;;5.42;100.00
20115;BME280;10218;42.874;25.320;2023-01-16T06:20:01;96824.53;;;5.39;100.00
20115;BME280;10218;42.874;25.320;2023-01-16T06:22:28;96815.75;;;5.39;100.00
20115;BME280;10218;42.874;25.320;2023-01-16T06:24:56;96813.28;;;5.37;100.00
20115;BME280;10218;42.874;25.320;2023-01-16T06:27:23;96805.94;;;5.49;100.00
20115;BME280;10218;42.874;25.320;2023-01-16T06:29:50;96796.47;;;5.64;100.00
20115;BME280;10218;42.874;25.320;2023-01-16T06:32:17;96813.66;;;5.42;100.00
20115;BME280;10218;42.874;25.320;2023-01-16T06:34:44;96796.34;;;5.48;100.00
20115;BME280;10218;42.874;25.320;2023-01-16T06:37:11;96797.06;;;5.40;100.00
20115;BME280;10218;42.874;25.320;2023-01-16T06:39:39;96812.75;;;5.51;100.00
20115;BME280;10218;42.874;25.320;2023-01-16T06:42:06;96802.72;;;5.73;100.00
20115;BME280;10218;42.874;25.320;2023-01-16T06:44:34;96803.09;;;5.78;100.00
20115;BME280;10218;42.874;25.320;2023-01-16T06:47:01;96801.09;;;5.44;100.00
20115;BME280;10218;42.874;25.320;2023-01-16T06:49:29;96792.84;;;5.65;100.00
20115;BME280;10218;42.874;25.320;2023-01-16T06:51:55;96802.63;;;5.65;100.00
20115;BME280;10218;42.874;25.320;2023-01-16T06:54:23;96812.56;;;5.80;100.00
20115;BME280;10218;42.874;25.320;2023-01-16T06:56:50;96804.97;;;5.85;100.00
20115;BME280;10218;42.874;25.320;2023-01-16T06:59:17;96795.62;;;6.09;100.00
20115;BME280;10218;42.874;25.320;2023-01-16T07:01:44;96806.09;;;5.92;100.00
20115;BME280;10218;42.874;25.320;2023-01-16T07:04:12;96799.34;;;6.41;100.00
20115;BME280;10218;42.874;25.320;2023-01-16T07:06:39;96793.06;;;7.02;100.00
20115;BME280;10218;42.874;25.320;2023-01-16T07:09:07;96783.03;;;6.88;100.00
20115;BME280;10218;42.874;25.320;2023-01-16T07:11:34;96820.34;;;7.12;100.00
20115;BME280;10218;42.874;25.320;2023-01-16T07:14:02;96778.50;;;7.56;100.00
20115;BME280;10218;42.874;25.320;2023-01-16T07:16:47;96782.31;;;7.12;100.00
20115;BME280;10218;42.874;25.320;2023-01-16T07:19:33;96795.38;;;7.39;100.00
20115;BME280;10218;42.874;25.320;2023-01-16T07:22:19;96784.03;;;7.87;100.00
20115;BME280;10218;42.874;25.320;2023-01-16T07:25:12;96767.06;;;7.96;100.00
20115;BME280;10218;42.874;25.320;2023-01-16T07:27:42;96767.78;;;9.41;100.00
20115;BME280;10218;42.874;25.320;2023-01-16T07:30:10;96758.59;;;9.05;100.00
20115;BME280;10218;42.874;25.320;2023-01-16T07:32:38;96747.50;;;9.32;100.00
20115;BME280;10218;42.874;25.320;2023-01-16T07:35:06;96744.78;;;9.40;100.00
20115;BME280;10218;42.874;25.320;2023-01-16T07:37:34;96725.97;;;8.55;100.00
20115;BME280;10218;42.874;25.320;2023-01-16T07:40:01;96732.97;;;9.04;100.00
20115;BME280;10218;42.874;25.320;2023-01-16T07:42:29;96730.41;;;9.18;100.00
20115;BME280;10218;42.874;25.320;2023-01-16T07:44:56;96720.97;;;9.38;100.00
20115;BME280;10218;42.874;25.320;2023-01-16T07:47:23;96709.53;;;8.11;100.00
20115;BME280;10218;42.874;25.320;2023-01-16T07:49:50;96706.56;;;8.06;100.00
20115;BME280;10218;42.874;25.320;2023-01-16T07:52:17;96691.13;;;9.12;100.00
20115;BME280;10218;42.874;25.320;2023-01-16T07:54:44;96683.44;;;9.17;100.00
20115;BME280;10218;42.874;25.320;2023-01-16T07:57:11;96687.56;;;9.20;99.13
20115;BME280;10218;42.874;25.320;2023-01-16T07:59:38;96679.09;;;9.70;94.52
20115;BME280;10218;42.874;25.320;2023-01-16T08:02:05;96661.13;;;8.24;100.00
20115;BME280;10218;42.874;25.320;2023-01-16T08:04:32;96676.44;;;8.30;100.00
20115;BME280;10218;42.874;25.320;2023-01-16T08:06:59;96674.84;;;8.68;100.00
20115;BME280;10218;42.874;25.320;2023-01-16T08:09:27;96682.06;;;8.51;100.00
20115;BME280;10218;42.874;25.320;2023-01-16T08:11:54;96679.03;;;9.32;96.19
20115;BME280;10218;42.874;25.320;2023-01-16T08:14:21;96670.41;;;8.91;92.72
20115;BME280;10218;42.874;25.320;2023-01-16T08:16:48;96660.94;;;9.20;92.87
20115;BME280;10218;42.874;25.320;2023-01-16T08:19:15;96666.00;;;9.07;91.92
20115;BME280;10218;42.874;25.320;2023-01-16T08:21:43;96656.22;;;9.53;87.23
20115;BME280;10218;42.874;25.320;2023-01-16T08:24:10;96649.47;;;10.54;75.83
20115;BME280;10218;42.874;25.320;2023-01-16T08:26:40;96650.06;;;9.75;74.71
20115;BME280;10218;42.874;25.320;2023-01-16T08:29:09;96661.63;;;10.71;65.45
20115;BME280;10218;42.874;25.320;2023-01-16T08:31:37;96670.66;;;10.70;67.50
20115;BME280;10218;42.874;25.320;2023-01-16T08:34:04;96661.03;;;11.05;63.26
20115;BME280;10218;42.874;25.320;2023-01-16T08:36:31;96667.06;;;10.49;65.57
20115;BME280;10218;42.874;25.320;2023-01-16T08:38:58;96665.75;;;10.89;62.96
20115;BME280;10218;42.874;25.320;2023-01-16T08:41:27;96661.53;;;10.13;67.19
20115;BME280;10218;42.874;25.320;2023-01-16T08:44:15;96660.22;;;10.90;65.01
20115;BME280;10218;42.874;25.320;2023-01-16T08:47:09;96675.66;;;11.24;57.69
20115;BME280;10218;42.874;25.320;2023-01-16T08:49:55;96665.38;;;11.28;58.54
20115;BME280;10218;42.874;25.320;2023-01-16T08:52:42;96681.62;;;11.62;55.25
20115;BME280;10218;42.874;25.320;2023-01-16T08:55:10;96678.53;;;12.01;55.20
20115;BME280;10218;42.874;25.320;2023-01-16T08:57:37;96672.31;;;11.73;55.12
20115;BME280;10218;42.874;25.320;2023-01-16T09:00:06;96672.41;;;12.35;52.77
20115;BME280;10218;42.874;25.320;2023-01-16T09:02:33;96672.25;;;12.15;52.97
20115;BME280;10218;42.874;25.320;2023-01-16T09:05:03;96665.63;;;12.67;51.63
20115;BME280;10218;42.874;25.320;2023-01-16T09:07:31;96664.63;;;11.91;53.78
20115;BME280;10218;42.874;25.320;2023-01-16T09:09:58;96669.38;;;11.32;55.17
20115;BME280;10218;42.874;25.320;2023-01-16T09:12:25;96669.06;;;12.54;53.13
20115;BME280;10218;42.874;25.320;2023-01-16T09:15:10;96661.66;;;12.28;51.09
20115;BME280;10218;42.874;25.320;2023-01-16T09:17:38;96661.97;;;14.16;48.61
20115;BME280;10218;42.874;25.320;2023-01-16T09:20:05;96660.31;;;14.08;47.81
20115;BME280;10218;42.874;25.320;2023-01-16T09:22:32;96651.09;;;13.30;48.98
20115;BME280;10218;42.874;25.320;2023-01-16T09:24:59;96653.03;;;13.56;47.40
20115;BME280;10218;42.874;25.320;2023-01-16T09:27:27;96641.78;;;13.26;49.25
20115;BME280;10218;42.874;25.320;2023-01-16T09:29:54;96619.78;;;12.55;50.17
20115;BME280;10218;42.874;25.320;2023-01-16T09:32:21;96621.78;;;11.48;52.45
20115;BME280;10218;42.874;25.320;2023-01-16T09:34:48;96622.13;;;11.60;53.80
20115;BME280;10218;42.874;25.320;2023-01-16T09:37:16;96606.03;;;11.32;53.42
20115;BME280;10218;42.874;25.320;2023-01-16T09:39:44;96612.91;;;11.63;52.41
20115;BME280;10218;42.874;25.320;2023-01-16T09:45:03;96594.72;;;11.73;51.02
20115;BME280;10218;42.874;25.320;2023-01-16T09:47:32;96597.75;;;12.25;50.50
20115;BME280;10218;42.874;25.320;2023-01-16T09:50:06;96598.31;;;13.44;47.37
20115;BME280;10218;42.874;25.320;2023-01-16T09:52:40;96605.66;;;13.15;47.51
20115;BME280;10218;42.874;25.320;2023-01-16T09:55:44;96593.34;;;13.34;46.31
20115;BME280;10218;42.874;25.320;2023-01-16T09:58:30;96595.97;;;12.73;48.42
20115;BME280;10218;42.874;25.320;2023-01-16T10:01:08;96595.63;;;12.14;48.54
20115;BME280;10218;42.874;25.320;2023-01-16T10:03:36;96587.44;;;13.04;48.04
20115;BME280;10218;42.874;25.320;2023-01-16T10:11:58;96585.94;;;13.69;45.74
20115;BME280;10218;42.874;25.320;2023-01-16T10:26:13;96545.63;;;11.66;50.81
20115;BME280;10218;42.874;25.320;2023-01-16T10:29:11;96539.34;;;12.42;48.97
20115;BME280;10218;42.874;25.320;2023-01-16T10:31:47;96549.50;;;12.60;48.36
20115;BME280;10218;42.874;25.320;2023-01-16T10:34:23;96551.22;;;12.26;48.42
20115;BME280;10218;42.874;25.320;2023-01-16T10:36:55;96550.69;;;12.92;47.46
20115;BME280;10218;42.874;25.320;2023-01-16T10:39:31;96548.66;;;13.00;47.60
20115;BME280;10218;42.874;25.320;2023-01-16T10:44:56;96542.69;;;11.82;50.88
20115;BME280;10218;42.874;25.320;2023-01-16T10:47:43;96532.78;;;12.10;50.69
20115;BME280;10218;42.874;25.320;2023-01-16T10:50:29;96538.97;;;11.34;52.20
20115;BME280;10218;42.874;25.320;2023-01-16T10:53:08;96538.91;;;11.06;52.82
20115;BME280;10218;42.874;25.320;2023-01-16T10:55:39;96531.03;;;11.96;50.59
20115;BME280;10218;42.874;25.320;2023-01-16T10:58:34;96522.44;;;12.41;50.26
20115;BME280;10218;42.874;25.320;2023-01-16T11:01:06;96520.25;;;11.83;52.00
20115;BME280;10218;42.874;25.320;2023-01-16T11:03:49;96524.84;;;12.30;51.13
20115;BME280;10218;42.874;25.320;2023-01-16T11:06:25;96525.00;;;12.63;49.67
20115;BME280;10218;42.874;25.320;2023-01-16T11:11:42;96505.00;;;12.11;49.88
20115;BME280;10218;42.874;25.320;2023-01-16T11:14:39;96516.88;;;11.74;52.03
20115;BME280;10218;42.874;25.320;2023-01-16T11:17:32;96503.37;;;11.33;53.99
20115;BME280;10218;42.874;25.320;2023-01-16T11:20:30;96520.25;;;11.83;51.48
20115;BME280;10218;42.874;25.320;2023-01-16T11:23:00;96503.56;;;11.81;51.38
20115;BME280;10218;42.874;25.320;2023-01-16T11:25:31;96507.97;;;11.67;52.75
20115;BME280;10218;42.874;25.320;2023-01-16T11:28:02;96488.63;;;11.16;53.15
20115;BME280;10218;42.874;25.320;2023-01-16T11:30:37;96499.16;;;11.45;53.97
20115;BME280;10218;42.874;25.320;2023-01-16T11:33:18;96489.88;;;10.42;54.77
20115;BME280;10218;42.874;25.320;2023-01-16T11:35:53;96493.78;;;10.75;56.97
20115;BME280;10218;42.874;25.320;2023-01-16T11:38:24;96487.66;;;10.60;55.62
20115;BME280;10218;42.874;25.320;2023-01-16T11:40:56;96472.44;;;10.60;57.42
20115;BME280;10218;42.874;25.320;2023-01-16T11:43:25;96470.66;;;10.46;58.68
20115;BME280;10218;42.874;25.320;2023-01-16T11:48:58;96470.88;;;10.30;61.88
20115;BME280;10218;42.874;25.320;2023-01-16T11:51:32;96468.72;;;10.40;61.53
20115;BME280;10218;42.874;25.320;2023-01-16T11:54:01;96462.22;;;10.28;61.49
20115;BME280;10218;42.874;25.320;2023-01-16T12:02:06;96452.13;;;11.02;58.72
20115;BME280;10218;42.874;25.320;2023-01-16T12:08:22;96452.59;;;10.69;59.18
20115;BME280;10218;42.874;25.320;2023-01-16T12:22:02;96432.50;;;10.73;59.72
20115;BME280;10218;42.874;25.320;2023-01-16T12:24:43;96431.44;;;10.32;61.22
20115;BME280;10218;42.874;25.320;2023-01-16T12:30:16;96427.97;;;10.53;60.81
20115;BME280;10218;42.874;25.320;2023-01-16T12:35:49;96409.00;;;10.12;62.89
20115;BME280;10218;42.874;25.320;2023-01-16T12:38:44;96408.81;;;10.28;60.94
20115;BME280;10218;42.874;25.320;2023-01-16T12:58:36;96403.31;;;10.15;60.08
20115;BME280;10218;42.874;25.320;2023-01-16T13:01:21;96407.19;;;9.98;60.81
20115;BME280;10218;42.874;25.320;2023-01-16T13:06:53;96396.00;;;9.87;63.25
20115;BME280;10218;42.874;25.320;2023-01-16T13:09:52;96384.75;;;10.85;59.43
20115;BME280;10218;42.874;25.320;2023-01-16T13:12:43;96383.19;;;11.25;56.86
20115;BME280;10218;42.874;25.320;2023-01-16T13:15:34;96377.84;;;11.59;55.65
20115;BME280;10218;42.874;25.320;2023-01-16T13:18:30;96372.31;;;10.78;57.84
20115;BME280;10218;42.874;25.320;2023-01-16T13:21:02;96369.78;;;10.91;57.56
20115;BME280;10218;42.874;25.320;2023-01-16T13:23:51;96373.63;;;10.60;58.12
20115;BME280;10218;42.874;25.320;2023-01-16T13:26:20;96369.62;;;10.50;58.94
20115;BME280;10218;42.874;25.320;2023-01-16T13:29:10;96362.69;;;10.77;58.38
20115;BME280;10218;42.874;25.320;2023-01-16T13:31:49;96356.03;;;11.56;55.60
20115;BME280;10218;42.874;25.320;2023-01-16T13:34:40;96363.34;;;12.29;53.59
20115;BME280;10218;42.874;25.320;2023-01-16T13:39:59;96355.47;;;10.77;57.39
20115;BME280;10218;42.874;25.320;2023-01-16T13:42:29;96361.03;;;10.54;59.50
20115;BME280;10218;42.874;25.320;2023-01-16T13:45:01;96335.09;;;10.27;61.98
20115;BME280;10218;42.874;25.320;2023-01-16T13:47:47;96327.66;;;10.08;63.30
20115;BME280;10218;42.874;25.320;2023-01-16T13:50:23;96325.88;;;9.94;64.94
20115;BME280;10218;42.874;25.320;2023-01-16T13:52:55;96322.31;;;9.86;65.79
20115;BME280;10218;42.874;25.320;2023-01-16T13:55:35;96322.56;;;9.92;65.77
20115;BME280;10218;42.874;25.320;2023-01-16T13:58:23;96316.34;;;9.84;67.34
20115;BME280;10218;42.874;25.320;2023-01-16T14:00:58;96308.66;;;9.75;68.65
20115;BME280;10218;42.874;25.320;2023-01-16T14:03:28;96302.75;;;9.79;69.68
20115;BME280;10218;42.874;25.320;2023-01-16T14:09:07;96319.81;;;9.49;75.33
20115;BME280;10218;42.874;25.320;2023-01-16T14:11:57;96303.19;;;9.32;80.30
20115;BME280;10218;42.874;25.320;2023-01-16T14:14:47;96311.28;;;9.24;83.60
20115;BME280;10218;42.874;25.320;2023-01-16T14:20:50;96304.44;;;9.51;78.70
20115;BME280;10218;42.874;25.320;2023-01-16T14:26:14;96320.09;;;9.25;79.47
20115;BME280;10218;42.874;25.320;2023-01-16T14:28:46;96301.62;;;9.38;82.90
20115;BME280;10218;42.874;25.320;2023-01-16T14:31:21;96297.31;;;9.22;82.82
20115;BME280;10218;42.874;25.320;2023-01-16T14:33:50;96305.31;;;9.22;85.89
20115;BME280;10218;42.874;25.320;2023-01-16T14:36:19;96328.91;;;9.11;86.06
20115;BME280;10218;42.874;25.320;2023-01-16T14:38:48;96300.06;;;9.29;87.16
20115;BME280;10218;42.874;25.320;2023-01-16T14:41:19;96293.00;;;9.07;88.89
20115;BME280;10218;42.874;25.320;2023-01-16T14:44:21;96288.84;;;8.89;91.27
20115;BME280;10218;42.874;25.320;2023-01-16T14:47:23;96294.75;;;9.29;88.50
20115;BME280;10218;42.874;25.320;2023-01-16T14:50:14;96299.16;;;8.92;93.43
20115;BME280;10218;42.874;25.320;2023-01-16T14:53:16;96302.09;;;9.12;92.15
20115;BME280;10218;42.874;25.320;2023-01-16T14:56:10;96303.28;;;8.95;93.55
20115;BME280;10218;42.874;25.320;2023-01-16T14:58:45;96287.84;;;8.90;94.51
20115;BME280;10218;42.874;25.320;2023-01-16T15:01:27;96280.97;;;8.96;94.77
20115;BME280;10218;42.874;25.320;2023-01-16T15:04:14;96283.16;;;8.92;93.17
20115;BME280;10218;42.874;25.320;2023-01-16T15:06:50;96280.69;;;9.06;93.00
20115;BME280;10218;42.874;25.320;2023-01-16T15:09:20;96269.56;;;8.87;94.71
20115;BME280;10218;42.874;25.320;2023-01-16T15:11:57;96274.13;;;8.79;94.55
20115;BME280;10218;42.874;25.320;2023-01-16T15:14:28;96275.19;;;8.78;94.36
20115;BME280;10218;42.874;25.320;2023-01-16T15:22:58;96269.56;;;8.87;89.61
20115;BME280;10218;42.874;25.320;2023-01-16T15:28:15;96241.38;;;8.93;89.02
20115;BME280;10218;42.874;25.320;2023-01-16T15:30:46;96267.47;;;8.97;90.88
20115;BME280;10218;42.874;25.320;2023-01-16T15:33:33;96227.69;;;8.81;90.65
20115;BME280;10218;42.874;25.320;2023-01-16T15:36:32;96251.47;;;8.97;90.64
20115;BME280;10218;42.874;25.320;2023-01-16T15:50:59;96255.31;;;8.80;88.10
20115;BME280;10218;42.874;25.320;2023-01-16T15:53:35;96244.78;;;8.87;87.28
20115;BME280;10218;42.874;25.320;2023-01-16T15:56:35;96235.28;;;8.99;84.88
20115;BME280;10218;42.874;25.320;2023-01-16T15:59:25;96233.94;;;8.88;85.78